Time;durP1;ratioP1;P1;durP2;ratioP2;P2;SDS_P1;SDS_P2;PMS_P1;PMS_P2;Temp;Humidity;BMP_temperature;BMP_pressure;BME280_temperature;BME280_humidity;BME280_pressure;Samples;Min_cycle;Max_cycle;Signal;HPM_P1;HPM_P2
2021/10/12 00:00:58;;;;;;;29.35;16.95;;;;;;;10.04;95.38;101192.13;5058591;28;20051;-53
2021/10/12 00:03:25;;;;;;;30.10;16.00;;;;;;;10.04;95.57;101191.25;5050785;28;20605;-53
2021/10/12 00:05:52;;;;;;;26.30;15.63;;;;;;;10.06;95.43;101189.44;5051198;28;20048;-54
2021/10/12 00:08:18;;;;;;;27.55;16.48;;;;;;;10.05;95.71;101185.91;5050782;28;20047;-53
2021/10/12 00:10:45;;;;;;;22.15;15.20;;;;;;;10.06;95.34;101185.00;5060520;28;20405;-52
2021/10/12 00:13:11;;;;;;;27.50;15.68;;;;;;;10.05;95.44;101175.34;5058771;28;20059;-53
2021/10/12 00:15:38;;;;;;;22.67;16.02;;;;;;;10.04;95.28;101173.59;5052305;28;20048;-53
2021/10/12 00:18:04;;;;;;;26.25;16.70;;;;;;;10.04;95.41;101175.38;5053948;28;20045;-51
2021/10/12 00:20:31;;;;;;;25.10;16.65;;;;;;;10.02;95.72;101167.50;5059222;28;20040;-53
2021/10/12 00:22:57;;;;;;;24.60;14.75;;;;;;;10.02;95.69;101167.50;5061881;28;20044;-53
2021/10/12 00:25:24;;;;;;;27.67;15.57;;;;;;;10.02;95.61;101167.50;5054731;28;20048;-53
2021/10/12 00:27:50;;;;;;;25.45;14.82;;;;;;;10.04;95.86;101173.59;5051874;28;20048;-54
2021/10/12 00:30:17;;;;;;;24.63;15.77;;;;;;;10.05;95.78;101172.69;5054029;28;20086;-54
2021/10/12 00:32:43;;;;;;;22.27;15.07;;;;;;;10.05;95.79;101171.81;5050996;28;20056;-53
2021/10/12 00:35:10;;;;;;;23.48;15.95;;;;;;;10.05;95.52;101161.25;5053043;28;20060;-53
2021/10/12 00:37:36;;;;;;;25.70;15.63;;;;;;;10.04;95.18;101163.03;5055190;28;20071;-57
2021/10/12 00:40:04;;;;;;;26.08;15.63;;;;;;;10.03;95.72;101156.00;5053184;28;20048;-53
2021/10/12 00:42:30;;;;;;;23.50;15.05;;;;;;;10.02;95.89;101153.41;5050666;28;20060;-54
2021/10/12 00:44:57;;;;;;;22.13;14.52;;;;;;;10.04;95.79;101156.84;5047452;28;20045;-55
2021/10/12 00:47:23;;;;;;;22.42;14.65;;;;;;;10.03;95.67;101155.13;5051268;28;20413;-53
2021/10/12 00:49:50;;;;;;;30.83;15.25;;;;;;;10.04;95.49;101152.44;5054996;28;20044;-52
2021/10/12 00:52:17;;;;;;;23.58;14.82;;;;;;;10.04;95.37;101155.09;5059133;28;20068;-53
2021/10/12 00:54:43;;;;;;;23.17;14.93;;;;;;;10.02;95.85;101146.31;5061960;28;20044;-53
2021/10/12 00:57:10;;;;;;;21.65;14.32;;;;;;;10.02;95.70;101141.03;5053594;28;20037;-57
2021/10/12 00:59:37;;;;;;;22.27;14.65;;;;;;;10.01;95.96;101130.50;5056503;28;20532;-53
2021/10/12 01:02:03;;;;;;;24.80;14.05;;;;;;;10.01;96.17;101134.00;5052299;28;20406;-54
2021/10/12 01:04:30;;;;;;;26.08;14.95;;;;;;;10.00;96.39;101132.28;5059161;28;20052;-53
2021/10/12 01:06:56;;;;;;;21.67;14.30;;;;;;;9.99;96.60;101124.38;5062061;28;20163;-54
2021/10/12 01:09:23;;;;;;;23.73;14.75;;;;;;;9.98;96.43;101120.00;5050236;28;21212;-54
2021/10/12 01:11:49;;;;;;;25.40;14.48;;;;;;;9.98;96.42;101112.06;5052693;28;20167;-53
2021/10/12 01:14:16;;;;;;;21.40;13.30;;;;;;;9.99;96.39;101119.09;5057526;28;20044;-53
2021/10/12 01:16:43;;;;;;;20.40;13.10;;;;;;;9.98;96.55;101106.78;5055510;28;20044;-54
2021/10/12 01:19:10;;;;;;;22.33;12.57;;;;;;;9.99;96.22;101106.72;5051198;28;20197;-51
2021/10/12 01:21:45;;;;;;;22.60;13.82;;;;;;;9.99;96.45;101109.38;5056649;28;20041;-53
2021/10/12 01:24:12;;;;;;;21.85;13.50;;;;;;;10.01;96.60;101112.84;5054445;28;20049;-53
2021/10/12 01:26:40;;;;;;;21.95;13.32;;;;;;;10.01;96.50;101104.91;5055489;28;20097;-52
2021/10/12 01:29:09;;;;;;;20.30;13.35;;;;;;;10.02;96.46;101104.00;5057466;28;20036;-52
2021/10/12 01:31:35;;;;;;;23.20;14.00;;;;;;;9.92;96.23;101084.03;5059348;28;20048;-52
2021/10/12 01:34:11;;;;;;;20.52;12.93;;;;;;;10.05;96.40;101098.59;5057204;28;20382;-52
2021/10/12 01:36:37;;;;;;;22.23;12.93;;;;;;;10.05;96.22;101095.94;5057380;28;20052;-53
2021/10/12 01:39:04;;;;;;;25.15;13.90;;;;;;;10.04;95.90;101091.56;5053328;28;20059;-52
2021/10/12 01:41:30;;;;;;;23.45;14.48;;;;;;;10.04;95.89;101086.28;5052874;28;20048;-53
2021/10/12 01:43:57;;;;;;;21.92;13.77;;;;;;;10.02;95.99;101088.09;5051554;28;20056;-54
2021/10/12 01:46:23;;;;;;;23.33;13.50;;;;;;;10.01;95.95;101081.09;5053336;28;20041;-53
2021/10/12 01:48:50;;;;;;;22.05;14.65;;;;;;;10.02;95.90;101074.88;5052602;28;20611;-53
2021/10/12 01:51:17;;;;;;;22.08;13.13;;;;;;;10.02;95.98;101066.94;5065713;28;20382;-52
2021/10/12 01:53:43;;;;;;;20.83;12.65;;;;;;;10.00;95.87;101068.78;5060583;28;20056;-53
2021/10/12 01:56:10;;;;;;;21.63;12.85;;;;;;;10.01;95.83;101064.34;5059338;28;20049;-55
2021/10/12 01:58:36;;;;;;;20.70;12.63;;;;;;;10.03;96.14;101065.16;5057915;28;20055;-53
2021/10/12 02:01:05;;;;;;;19.75;13.40;;;;;;;10.03;96.27;101059.88;5064219;28;20040;-55
2021/10/12 02:03:32;;;;;;;18.40;12.13;;;;;;;10.05;95.83;101071.28;5052259;28;20045;-53
2021/10/12 02:05:59;;;;;;;21.00;12.52;;;;;;;10.05;96.22;101058.91;5062240;28;20041;-54
2021/10/12 02:08:25;;;;;;;18.83;12.45;;;;;;;10.04;96.07;101054.53;5061522;28;20048;-54
2021/10/12 02:10:52;;;;;;;19.27;11.73;;;;;;;10.07;96.12;101059.69;5057297;28;20049;-52
2021/10/12 02:13:18;;;;;;;21.92;12.27;;;;;;;10.08;96.14;101056.13;5063064;28;20036;-53
2021/10/12 02:15:45;;;;;;;21.77;12.40;;;;;;;10.09;96.07;101057.84;5054719;28;20505;-54
2021/10/12 02:18:11;;;;;;;20.23;12.73;;;;;;;10.11;95.94;101055.16;5059240;28;20048;-53
2021/10/12 02:20:37;;;;;;;16.63;11.43;;;;;;;10.12;96.25;101052.47;5060322;28;20040;-53
2021/10/12 02:23:04;;;;;;;15.93;10.68;;;;;;;10.11;96.21;101050.75;5062363;28;20036;-53
2021/10/12 02:25:32;;;;;;;18.00;10.57;;;;;;;10.13;96.56;101053.34;5060001;28;20086;-54
2021/10/12 02:27:58;;;;;;;18.25;12.18;;;;;;;10.15;96.46;101047.06;5056472;28;20068;-54
2021/10/12 02:30:25;;;;;;;20.83;11.77;;;;;;;10.17;96.15;101039.09;5059006;28;20052;-53
2021/10/12 02:32:51;;;;;;;21.27;11.20;;;;;;;10.18;96.22;101044.34;5060797;28;20036;-53
2021/10/12 02:35:18;;;;;;;22.38;12.30;;;;;;;10.21;96.20;101039.88;5063668;28;20045;-52
2021/10/12 02:37:44;;;;;;;18.55;11.30;;;;;;;10.23;95.98;101035.41;5059574;28;20048;-54
2021/10/12 02:40:11;;;;;;;21.45;10.82;;;;;;;10.25;95.48;101038.84;5049765;28;20052;-52
2021/10/12 02:42:37;;;;;;;19.50;12.20;;;;;;;10.27;95.36;101037.00;5052540;28;20745;-52
2021/10/12 02:45:04;;;;;;;23.35;12.25;;;;;;;10.27;95.44;101034.34;5058299;28;20048;-52
2021/10/12 02:47:33;;;;;;;22.17;11.75;;;;;;;10.24;95.21;101035.31;5057179;28;20044;-53
2021/10/12 02:50:05;;;;;;;20.92;11.48;;;;;;;10.22;95.60;101025.72;5060470;28;20068;-55
2021/10/12 02:52:32;;;;;;;21.30;11.93;;;;;;;10.17;96.05;101024.06;5054014;28;20048;-52
2021/10/12 02:54:59;;;;;;;22.98;12.90;;;;;;;10.10;96.46;101022.53;5056298;28;20131;-52
2021/10/12 02:57:25;;;;;;;19.55;11.73;;;;;;;10.06;97.10;101026.25;5059590;28;20453;-53
2021/10/12 02:59:52;;;;;;;22.02;13.60;;;;;;;10.03;98.10;101021.03;5052956;28;20037;-52
2021/10/12 03:02:18;;;;;;;22.15;13.13;;;;;;;9.96;98.80;101019.50;5061329;28;20056;-54
2021/10/12 03:04:45;;;;;;;27.33;13.30;;;;;;;9.90;99.93;101024.16;5055311;28;20052;-51
2021/10/12 03:07:12;;;;;;;30.02;13.68;;;;;;;9.88;100.00;101018.94;5058641;28;20151;-53
2021/10/12 03:09:38;;;;;;;22.38;13.27;;;;;;;9.84;100.00;101020.81;5054414;28;20049;-53
2021/10/12 03:12:05;;;;;;;25.42;13.15;;;;;;;9.80;100.00;101024.47;5053301;28;20052;-54
2021/10/12 03:14:32;;;;;;;22.85;13.65;;;;;;;9.73;100.00;101008.88;5055535;28;20051;-52
2021/10/12 03:16:59;;;;;;;28.20;14.95;;;;;;;9.72;100.00;101017.72;5061243;28;20041;-54
2021/10/12 03:19:25;;;;;;;26.17;13.40;;;;;;;9.68;100.00;101013.44;5054866;28;20079;-53
2021/10/12 03:22:08;;;;;;;29.50;14.20;;;;;;;9.66;100.00;101017.91;5059864;28;20082;-51
2021/10/12 03:24:35;;;;;;;20.52;12.30;;;;;;;9.66;100.00;101025.84;5062727;28;20048;-53
2021/10/12 03:27:01;;;;;;;28.65;14.13;;;;;;;9.62;100.00;101008.34;5058114;28;20044;-53
2021/10/12 03:29:28;;;;;;;23.55;12.40;;;;;;;9.61;100.00;101019.84;5052865;28;20516;-53
2021/10/12 03:31:54;;;;;;;24.02;13.35;;;;;;;9.60;100.00;101007.56;5055884;28;20056;-53
2021/10/12 03:34:21;;;;;;;27.15;13.82;;;;;;;9.57;100.00;101005.00;5058730;28;20040;-53
2021/10/12 03:36:47;;;;;;;26.60;14.02;;;;;;;9.57;100.00;101012.94;5055135;28;20044;-52
2021/10/12 03:39:14;;;;;;;27.30;14.32;;;;;;;9.57;100.00;101012.94;5059461;28;20967;-52
2021/10/12 03:41:40;;;;;;;25.08;13.63;;;;;;;9.58;100.00;101012.03;5059462;28;20055;-54
2021/10/12 03:44:07;;;;;;;30.35;14.60;;;;;;;9.57;100.00;101010.28;5059238;28;20044;-52
2021/10/12 03:46:33;;;;;;;32.38;15.18;;;;;;;9.58;100.00;101009.38;5057098;28;20044;-54
2021/10/12 03:49:00;;;;;;;33.28;15.43;;;;;;;9.61;100.00;101006.59;5053399;28;20498;-53
2021/10/12 03:51:26;;;;;;;33.13;15.80;;;;;;;9.57;100.00;101005.00;5058123;28;20040;-52
2021/10/12 03:53:53;;;;;;;30.85;15.70;;;;;;;9.55;100.00;101001.53;5059063;28;20044;-52
2021/10/12 03:56:20;;;;;;;29.80;15.43;;;;;;;9.52;100.00;101001.63;5061776;28;20047;-51
2021/10/12 03:58:47;;;;;;;33.10;16.67;;;;;;;9.50;100.00;100994.63;5058439;28;20044;-53
2021/10/12 04:01:14;;;;;;;33.05;16.70;;;;;;;9.51;100.00;100992.84;5057796;28;20044;-52
2021/10/12 04:03:43;;;;;;;33.00;16.48;;;;;;;9.53;100.00;100992.78;5056323;28;20044;-52
2021/10/12 04:06:10;;;;;;;32.00;16.50;;;;;;;9.54;100.00;100995.41;5059981;28;20051;-53
2021/10/12 04:08:36;;;;;;;37.13;18.77;;;;;;;9.53;100.00;100992.78;5052860;28;20607;-52
2021/10/12 04:11:04;;;;;;;35.42;16.45;;;;;;;9.55;100.00;100993.63;5052028;28;20131;-53
2021/10/12 04:13:31;;;;;;;32.58;17.90;;;;;;;9.52;100.00;100983.13;5056308;28;20044;-53
2021/10/12 04:15:57;;;;;;;33.13;17.48;;;;;;;9.52;100.00;100985.78;5053862;28;20055;-52
2021/10/12 04:18:24;;;;;;;34.03;18.58;;;;;;;9.44;100.00;100959.63;5054773;28;20053;-53
2021/10/12 04:20:50;;;;;;;39.42;19.08;;;;;;;9.52;100.00;100973.41;5051794;28;20048;-53
2021/10/12 04:23:18;;;;;;;35.33;18.67;;;;;;;9.54;100.00;100962.81;5055239;28;20040;-53
2021/10/12 04:25:45;;;;;;;37.97;19.13;;;;;;;9.54;100.00;100957.50;5053783;28;20055;-53
2021/10/12 04:28:13;;;;;;;35.05;18.05;;;;;;;9.52;100.00;100948.75;5058151;28;20036;-53
2021/10/12 04:30:40;;;;;;;40.50;18.30;;;;;;;9.53;100.00;100951.38;5052465;28;20068;-52
2021/10/12 04:33:07;;;;;;;43.67;19.75;;;;;;;9.52;100.00;100943.47;5056458;28;20047;-53
2021/10/12 04:35:35;;;;;;;46.63;20.35;;;;;;;9.50;100.00;100946.16;5057506;28;20059;-53
2021/10/12 04:38:02;;;;;;;36.38;19.67;;;;;;;9.49;100.00;100934.72;5054202;28;20045;-53
2021/10/12 04:40:31;;;;;;;38.63;20.17;;;;;;;9.48;100.00;100937.41;5053926;28;20094;-52
2021/10/12 04:43:01;;;;;;;33.10;19.85;;;;;;;9.45;100.00;100933.09;5058066;28;20051;-53
2021/10/12 04:45:28;;;;;;;38.65;19.95;;;;;;;9.46;100.00;100941.88;5059542;28;20049;-52
2021/10/12 04:47:54;;;;;;;37.83;18.58;;;;;;;9.45;100.00;100935.75;5054860;28;20083;-53
2021/10/12 04:50:21;;;;;;;40.63;19.80;;;;;;;9.44;100.00;100936.66;5051005;28;20059;-51
2021/10/12 04:52:47;;;;;;;32.75;19.83;;;;;;;9.44;100.00;100941.94;5056081;28;20048;-56
2021/10/12 04:55:14;;;;;;;34.42;19.67;;;;;;;9.42;100.00;100943.81;5056894;28;20501;-53
2021/10/12 04:57:40;;;;;;;36.20;20.67;;;;;;;9.41;100.00;100934.13;5057525;28;20072;-54
2021/10/12 05:00:08;;;;;;;36.60;20.95;;;;;;;9.40;100.00;100940.34;5050734;28;20058;-53
2021/10/12 05:02:35;;;;;;;38.63;22.33;;;;;;;9.39;100.00;100943.91;5054895;28;20048;-53
2021/10/12 05:05:02;;;;;;;39.35;21.50;;;;;;;9.40;100.00;100942.13;5052396;28;20078;-54
2021/10/12 05:07:29;;;;;;;44.08;21.70;;;;;;;9.38;100.00;100946.59;5056188;28;20056;-52
2021/10/12 05:09:56;;;;;;;40.70;22.88;;;;;;;9.38;100.00;100938.66;5056945;28;20051;-52
2021/10/12 05:12:23;;;;;;;39.17;21.50;;;;;;;9.37;100.00;100939.56;5058909;28;20044;-53
2021/10/12 05:14:49;;;;;;;40.88;22.70;;;;;;;9.36;100.00;100941.34;5056867;28;20049;-53
2021/10/12 05:17:23;;;;;;;42.13;22.42;;;;;;;9.35;100.00;100942.25;5062927;28;20814;-52
2021/10/12 05:19:49;;;;;;;41.67;22.83;;;;;;;9.35;100.00;100936.97;5064525;28;20049;-54
2021/10/12 05:22:16;;;;;;;44.17;23.73;;;;;;;9.36;100.00;100937.84;5078190;28;20054;-57
2021/10/12 05:24:42;;;;;;;56.17;26.35;;;;;;;9.35;100.00;100926.41;5074430;28;20406;-52
2021/10/12 05:27:09;;;;;;;54.08;26.85;;;;;;;9.34;100.00;100922.03;5076520;28;20041;-52
2021/10/12 05:29:36;;;;;;;50.97;24.85;;;;;;;9.24;100.00;100909.19;5066602;28;20052;-53
2021/10/12 05:32:03;;;;;;;53.25;26.48;;;;;;;9.35;100.00;100925.53;5065723;28;20090;-52
2021/10/12 05:34:31;;;;;;;52.78;25.98;;;;;;;9.35;100.00;100921.13;5060272;28;20079;-54
2021/10/12 05:36:57;;;;;;;48.90;25.85;;;;;;;9.26;100.00;100913.50;5057761;28;20040;-51
2021/10/12 05:39:24;;;;;;;42.67;25.38;;;;;;;9.36;100.00;100924.63;5058304;28;20047;-53
2021/10/12 05:41:50;;;;;;;49.88;25.13;;;;;;;9.36;100.00;100920.22;5055592;28;20048;-54
2021/10/12 05:44:16;;;;;;;47.38;24.50;;;;;;;9.41;100.00;100923.56;5064125;28;20731;-54
2021/10/12 05:46:43;;;;;;;49.83;27.08;;;;;;;9.40;100.00;100923.63;5060619;28;20067;-53
2021/10/12 05:49:10;;;;;;;47.15;25.20;;;;;;;9.39;100.00;100928.03;5057147;28;20059;-53
2021/10/12 05:51:37;;;;;;;45.85;25.45;;;;;;;9.38;100.00;100926.31;5058336;28;20049;-53
2021/10/12 05:54:05;;;;;;;57.90;27.42;;;;;;;9.41;100.00;100920.06;5062053;28;20040;-52
2021/10/12 05:57:35;;;;;;;54.33;26.70;;;;;;;9.46;100.00;100923.38;5062466;28;20048;-54
2021/10/12 05:59:27;;;;;;;52.30;27.20;;;;;;;9.55;100.00;100922.22;5046851;28;20044;-53
2021/10/12 06:01:54;;;;;;;49.03;25.67;;;;;;;9.51;100.00;100929.41;5057482;28;20044;-53
2021/10/12 06:04:20;;;;;;;45.47;25.88;;;;;;;9.52;100.00;100919.69;5050977;28;20259;-52
2021/10/12 06:06:47;;;;;;;51.80;26.88;;;;;;;9.45;100.00;100919.88;5053255;28;20048;-52
2021/10/12 06:09:13;;;;;;;50.42;25.40;;;;;;;9.41;100.00;100914.78;5054977;28;20510;-54
2021/10/12 06:11:40;;;;;;;52.25;25.63;;;;;;;9.40;100.00;100923.63;5049164;28;20167;-56
2021/10/12 06:14:06;;;;;;;47.08;24.67;;;;;;;9.44;100.00;100918.16;5052797;28;20048;-53
2021/10/12 06:16:33;;;;;;;44.25;24.13;;;;;;;9.44;100.00;100920.78;5051323;28;20069;-54
2021/10/12 06:18:59;;;;;;;42.45;23.92;;;;;;;9.28;100.00;100881.75;5044370;28;20099;-53
2021/10/12 06:21:26;;;;;;;42.40;24.88;;;;;;;9.45;100.00;100911.09;5052942;28;20049;-52
2021/10/12 06:23:52;;;;;;;43.17;23.80;;;;;;;9.35;100.00;100905.25;5053964;28;20049;-52
2021/10/12 06:26:19;;;;;;;43.80;24.25;;;;;;;9.41;100.00;100913.00;5048419;28;20442;-53
2021/10/12 06:28:45;;;;;;;44.47;24.45;;;;;;;9.43;100.00;100919.09;5051907;28;20045;-53
2021/10/12 06:31:13;;;;;;;49.97;23.60;;;;;;;9.43;100.00;100905.88;5049834;28;20040;-52
2021/10/12 06:33:40;;;;;;;48.38;24.17;;;;;;;9.50;100.00;100909.16;5047994;28;20069;-52
2021/10/12 06:36:07;;;;;;;45.15;24.83;;;;;;;9.46;100.00;100913.69;5048427;28;20048;-51
2021/10/12 06:38:33;;;;;;;43.20;23.83;;;;;;;9.47;100.00;100907.47;5049678;28;20060;-53
2021/10/12 06:41:00;;;;;;;44.90;24.40;;;;;;;9.57;100.00;100904.53;5050188;28;20111;-51
2021/10/12 06:43:26;;;;;;;50.95;23.70;;;;;;;9.58;100.00;100896.56;5048225;28;20051;-53
2021/10/12 06:45:53;;;;;;;46.80;24.35;;;;;;;9.58;100.00;100895.69;5051518;28;20048;-52
2021/10/12 06:48:20;;;;;;;51.00;25.13;;;;;;;9.59;100.00;100900.06;5052885;28;20048;-52
2021/10/12 06:50:46;;;;;;;43.60;23.85;;;;;;;9.56;100.00;100905.44;5044492;28;20044;-55
2021/10/12 06:53:33;;;;;;;38.97;21.83;;;;;;;9.64;100.00;100906.91;5048096;28;20044;-51
2021/10/12 06:55:59;;;;;;;40.60;22.63;;;;;;;9.64;100.00;100903.38;5055197;28;20932;-52
2021/10/12 06:58:26;;;;;;;40.38;21.63;;;;;;;9.62;100.00;100897.28;5050929;28;20052;-53
2021/10/12 07:01:12;;;;;;;38.40;22.02;;;;;;;9.64;100.00;100911.31;5041579;28;20379;-53
2021/10/12 07:03:39;;;;;;;38.95;21.80;;;;;;;9.66;100.00;100906.84;5053390;28;20056;-53
2021/10/12 07:06:05;;;;;;;40.50;21.98;;;;;;;9.65;100.00;100898.06;5048470;28;20071;-52
2021/10/12 07:08:32;;;;;;;41.28;22.63;;;;;;;9.66;100.00;100907.72;5050183;28;20052;-52
2021/10/12 07:10:58;;;;;;;38.55;21.77;;;;;;;9.70;100.00;100903.19;5047803;28;20091;-53
2021/10/12 07:13:31;;;;;;;37.08;21.95;;;;;;;9.73;100.00;100898.66;5051319;28;20044;-53
2021/10/12 07:15:58;;;;;;;39.47;21.63;;;;;;;9.78;100.00;100898.47;5049386;28;20048;-54
2021/10/12 07:18:26;;;;;;;41.25;21.85;;;;;;;9.79;100.00;100895.78;5051653;28;20143;-54
2021/10/12 07:20:53;;;;;;;40.63;20.92;;;;;;;9.85;100.00;100900.00;5047805;28;20044;-53
2021/10/12 07:23:19;;;;;;;34.30;21.40;;;;;;;9.76;100.00;100879.16;5053737;28;20508;-53
2021/10/12 07:25:48;;;;;;;38.60;20.98;;;;;;;9.92;100.00;100888.25;5048525;28;20051;-53
2021/10/12 07:28:15;;;;;;;33.25;20.23;;;;;;;10.01;100.00;100892.38;5054581;28;20059;-52
2021/10/12 07:30:42;;;;;;;35.38;19.80;;;;;;;10.05;100.00;100886.03;5053315;28;20074;-52
2021/10/12 07:33:08;;;;;;;30.85;20.23;;;;;;;10.15;100.00;100890.06;5051519;28;20048;-51
2021/10/12 07:35:53;;;;;;;32.45;20.48;;;;;;;10.22;100.00;100888.09;5049619;28;20059;-52
2021/10/12 07:38:19;;;;;;;33.90;19.30;;;;;;;10.24;100.00;100883.59;5044907;28;20285;-54
2021/10/12 07:40:46;;;;;;;28.25;18.50;;;;;;;10.23;100.00;100880.06;5048538;28;20041;-52
2021/10/12 07:43:12;;;;;;;33.45;19.52;;;;;;;10.22;100.00;100888.97;5056745;28;20052;-52
2021/10/12 07:45:39;;;;;;;35.13;18.98;;;;;;;10.16;100.00;100890.00;5050646;28;20098;-52
2021/10/12 07:48:05;;;;;;;36.92;19.05;;;;;;;10.15;100.00;100892.72;5051691;28;20513;-52
2021/10/12 07:50:33;;;;;;;33.88;18.65;;;;;;;10.14;100.00;100886.56;5050215;28;20079;-51
2021/10/12 07:53:00;;;;;;;29.48;17.92;;;;;;;10.14;100.00;100881.25;5053213;28;20049;-52
2021/10/12 07:55:36;;;;;;;26.40;17.52;;;;;;;10.10;100.00;100889.38;5053006;28;20142;-52
2021/10/12 07:58:03;;;;;;;25.88;16.88;;;;;;;10.13;100.00;100886.63;5048836;28;20056;-52
2021/10/12 08:00:31;;;;;;;27.15;16.55;;;;;;;10.15;100.00;100883.00;5051496;28;20055;-52
2021/10/12 08:03:02;;;;;;;27.58;17.52;;;;;;;10.08;100.00;100867.38;5054300;28;20551;-52
2021/10/12 08:05:37;;;;;;;23.02;15.52;;;;;;;10.15;100.00;100885.63;5029633;27;20604;-52
2021/10/12 08:08:05;;;;;;;30.15;17.27;;;;;;;10.15;100.00;100863.59;5016315;28;20109;-53
2021/10/12 08:10:33;;;;;;;29.20;15.80;;;;;;;10.24;100.00;100865.91;5006715;28;20057;-53
2021/10/12 08:13:04;;;;;;;25.50;15.73;;;;;;;10.27;100.00;100860.50;5011508;28;20062;-53
2021/10/12 08:15:30;;;;;;;24.83;14.10;;;;;;;10.30;100.00;100856.91;5005724;28;20125;-54
2021/10/12 08:17:57;;;;;;;20.52;12.88;;;;;;;10.35;100.00;100862.88;5004795;28;20060;-52
2021/10/12 08:20:24;;;;;;;21.83;13.27;;;;;;;10.27;100.00;100851.72;5000187;28;20051;-52
2021/10/12 08:22:51;;;;;;;25.08;13.20;;;;;;;10.21;100.00;100866.06;5005524;28;20060;-53
2021/10/12 08:25:17;;;;;;;20.42;12.30;;;;;;;10.17;100.00;100852.03;5005131;28;20042;-53
2021/10/12 08:27:44;;;;;;;23.30;12.63;;;;;;;10.22;100.00;100861.63;4998544;28;20052;-53
2021/10/12 08:30:11;;;;;;;19.50;12.00;;;;;;;10.25;100.00;100853.56;5005891;28;20046;-53
2021/10/12 08:32:40;;;;;;;20.05;13.40;;;;;;;10.23;100.00;100848.31;5014895;28;20056;-55
2021/10/12 08:35:10;;;;;;;20.38;12.27;;;;;;;10.19;100.00;100846.72;5011777;28;20493;-52
2021/10/12 08:37:37;;;;;;;24.15;13.95;;;;;;;10.20;100.00;100840.53;5002954;28;20057;-52
2021/10/12 08:40:09;;;;;;;21.40;12.35;;;;;;;10.15;100.00;100842.44;4987988;28;20053;-52
2021/10/12 08:42:40;;;;;;;23.70;12.55;;;;;;;10.11;100.00;100830.22;4994346;28;20042;-53
2021/10/12 08:45:08;;;;;;;18.88;12.20;;;;;;;10.12;100.00;100838.13;5001798;28;20415;-52
2021/10/12 08:47:36;;;;;;;20.98;12.27;;;;;;;10.15;100.00;100831.84;5012605;28;20050;-50
2021/10/12 08:50:06;;;;;;;18.02;12.73;;;;;;;10.16;100.00;100830.94;5007757;28;20545;-52
2021/10/12 08:52:32;;;;;;;20.65;12.32;;;;;;;10.18;100.00;100829.09;4990490;28;20049;-53
2021/10/12 08:54:59;;;;;;;16.80;11.80;;;;;;;10.23;100.00;100827.13;5004450;28;20046;-51
2021/10/12 08:57:36;;;;;;;18.10;11.52;;;;;;;10.23;100.00;100824.50;5000138;28;20053;-52
2021/10/12 09:00:14;;;;;;;17.60;10.70;;;;;;;10.21;100.00;100817.56;5002444;28;20715;-53
2021/10/12 09:05:56;;;;;;;18.63;10.32;;;;;;;10.17;100.00;100815.00;5000503;28;20048;-52
2021/10/12 09:08:24;;;;;;;22.60;10.80;;;;;;;10.24;100.00;100820.94;5003475;28;20069;-52
2021/10/12 09:10:51;;;;;;;15.85;10.82;;;;;;;10.15;100.00;100802.75;5001689;28;20045;-52
2021/10/12 09:13:18;;;;;;;17.38;10.35;;;;;;;10.06;100.00;100789.88;4992459;28;20510;-53
2021/10/12 09:16:05;;;;;;;17.75;10.65;;;;;;;10.15;100.00;100815.97;4993747;28;20451;-53
2021/10/12 09:18:57;;;;;;;20.38;10.20;;;;;;;10.17;100.00;100809.69;4984110;28;20071;-53
2021/10/12 09:21:25;;;;;;;17.42;10.52;;;;;;;10.25;100.00;100800.63;4986646;28;20087;-53
2021/10/12 09:24:08;;;;;;;21.05;11.57;;;;;;;10.29;100.00;100797.78;4998701;28;20133;-52
2021/10/12 09:26:38;;;;;;;18.27;10.82;;;;;;;10.33;100.00;100796.75;4983957;28;20053;-52
2021/10/12 09:29:10;;;;;;;22.33;11.48;;;;;;;10.39;100.00;100793.84;4992160;28;20060;-52
2021/10/12 09:31:41;;;;;;;19.65;11.00;;;;;;;10.44;100.00;100785.72;4984950;28;20867;-53
2021/10/12 09:34:09;;;;;;;16.70;11.32;;;;;;;10.47;100.00;100793.56;4991902;28;20050;-52
2021/10/12 09:36:41;;;;;;;18.40;11.50;;;;;;;10.56;100.00;100790.53;4985395;28;20049;-53
2021/10/12 09:39:32;;;;;;;17.65;9.85;;;;;;;10.67;100.00;100780.38;4983850;28;20450;-54
2021/10/12 09:42:07;;;;;;;17.60;10.57;;;;;;;10.81;100.00;100785.97;4967475;28;20334;-53
2021/10/12 09:44:35;;;;;;;18.00;10.25;;;;;;;10.88;100.00;100779.47;4998135;28;20037;-54
2021/10/12 09:47:09;;;;;;;19.73;10.70;;;;;;;10.91;100.00;100781.13;4996189;28;20054;-52
2021/10/12 09:49:37;;;;;;;17.65;9.43;;;;;;;10.93;100.00;100771.34;4996963;28;20061;-53
2021/10/12 09:52:10;;;;;;;17.67;10.00;;;;;;;11.01;100.00;100773.66;4983318;28;20050;-52
2021/10/12 09:54:41;;;;;;;19.67;10.18;;;;;;;10.97;100.00;100764.13;4986782;28;20042;-54
2021/10/12 09:57:07;;;;;;;;;;;;;;;10.95;100.00;100755.38;4982560;28;20386;-52
2021/10/12 09:59:34;;;;;;;13.73;9.20;;;;;;;11.07;100.00;100757.50;4981363;28;19929;-55
2021/10/12 10:02:02;;;;;;;16.73;10.30;;;;;;;11.29;100.00;100741.53;4995735;28;20588;-52
2021/10/12 10:04:35;;;;;;;17.77;9.02;;;;;;;11.52;100.00;100746.63;4982891;28;20045;-53
2021/10/12 10:07:04;;;;;;;14.25;9.23;;;;;;;11.65;100.00;100753.09;4988767;28;20042;-53
2021/10/12 10:09:34;;;;;;;18.17;9.40;;;;;;;11.69;100.00;100748.53;4992032;28;20069;-53
2021/10/12 10:12:01;;;;;;;17.70;9.25;;;;;;;11.64;100.00;100747.91;4980048;28;20549;-53
2021/10/12 10:14:28;;;;;;;16.83;8.75;;;;;;;11.59;100.00;100742.78;4987888;28;20141;-53
2021/10/12 10:16:59;;;;;;;17.27;8.93;;;;;;;11.45;100.00;100740.78;4988359;28;20414;-53
2021/10/12 10:19:30;;;;;;;;;;;;;;;11.43;100.00;100733.81;4991245;28;20054;-52
2021/10/12 10:21:57;;;;;;;18.35;9.20;;;;;;;11.49;100.00;100733.53;4981125;28;19940;-54
2021/10/12 10:24:38;;;;;;;18.98;8.82;;;;;;;11.48;100.00;100727.38;4980931;28;20042;-53
2021/10/12 10:27:06;;;;;;;19.00;9.25;;;;;;;11.44;100.00;100719.63;4993017;28;20052;-53
2021/10/12 10:29:37;;;;;;;14.40;8.82;;;;;;;11.55;100.00;100718.19;4990318;28;20050;-52
2021/10/12 10:32:18;;;;;;;17.25;8.82;;;;;;;11.52;100.00;100709.50;4982046;28;20049;-52
2021/10/12 10:35:12;;;;;;;15.57;8.68;;;;;;;11.55;99.44;100718.19;4979061;28;20372;-54
2021/10/12 10:37:38;;;;;;;15.15;7.13;;;;;;;11.56;100.00;100713.75;4996390;28;20049;-52
2021/10/12 10:40:25;;;;;;;15.85;7.63;;;;;;;11.51;98.96;100705.13;4983511;28;20054;-53
2021/10/12 10:42:56;;;;;;;13.95;7.85;;;;;;;11.54;97.25;100710.31;4981216;28;20049;-53
2021/10/12 10:45:49;;;;;;;15.75;8.52;;;;;;;11.48;99.15;100703.50;4985018;28;20360;-52
2021/10/12 10:48:20;;;;;;;16.73;7.43;;;;;;;11.48;95.94;100700.00;4985680;28;20144;-52
2021/10/12 10:51:20;;;;;;;13.95;7.70;;;;;;;11.40;98.35;100694.16;4986688;28;20291;-54
2021/10/12 10:53:47;;;;;;;14.88;7.53;;;;;;;11.44;95.91;100693.09;4981394;28;20042;-53
2021/10/12 10:56:14;;;;;;;15.07;8.15;;;;;;;11.40;97.50;100692.38;4982381;28;20047;-52
2021/10/12 10:58:41;;;;;;;17.90;8.13;;;;;;;11.35;97.86;100688.19;4986690;28;20525;-52
2021/10/12 11:01:07;;;;;;;15.13;6.80;;;;;;;11.34;97.71;100682.03;4987057;28;20041;-53
2021/10/12 11:03:35;;;;;;;12.07;7.07;;;;;;;11.41;95.68;100683.50;4978270;28;20058;-52
2021/10/12 11:06:20;;;;;;;15.77;7.10;;;;;;;11.33;98.59;100677.69;4987819;28;20053;-53
2021/10/12 11:09:07;;;;;;;12.60;7.50;;;;;;;11.31;98.84;100679.56;4990277;28;20054;-53
2021/10/12 11:11:35;;;;;;;13.93;6.40;;;;;;;11.36;97.28;100674.00;4983218;28;20051;-54
2021/10/12 11:14:03;;;;;;;13.95;6.80;;;;;;;11.40;96.68;100665.84;4979607;28;20050;-56
2021/10/12 11:16:34;;;;;;;10.88;5.70;;;;;;;11.50;93.63;100664.50;4991821;28;20064;-52
2021/10/12 11:19:03;;;;;;;12.55;5.65;;;;;;;11.46;93.65;100654.97;4990124;28;20114;-53